createdAt,value
2018-06-13T00:01:41.865Z,25.63
2018-06-13T00:04:10.368Z,25.90
2018-06-13T00:06:38.926Z,25.13
2018-06-13T00:09:08.898Z,23.70
2018-06-13T00:11:37.339Z,22.27
2018-06-13T00:14:06.111Z,22.93
2018-06-13T00:16:34.615Z,23.10
2018-06-13T00:19:03.052Z,22.47
2018-06-13T00:21:31.543Z,21.90
2018-06-13T00:24:00.014Z,20.87
2018-06-13T00:26:28.429Z,19.97
2018-06-13T00:28:56.863Z,21.13
2018-06-13T00:31:25.573Z,18.83
2018-06-13T00:33:54.050Z,21.37
2018-06-13T00:36:26.798Z,21.93
2018-06-13T00:38:55.262Z,23.07
2018-06-13T00:41:23.698Z,22.93
2018-06-13T00:43:52.174Z,23.37
2018-06-13T00:46:20.690Z,23.13
2018-06-13T00:48:49.142Z,23.03
2018-06-13T00:51:17.645Z,22.33
2018-06-13T00:53:46.089Z,22.90
2018-06-13T00:56:25.751Z,22.83
2018-06-13T00:58:54.250Z,22.37
2018-06-13T01:01:22.686Z,21.00
2018-06-13T01:03:51.082Z,21.80
2018-06-13T01:06:19.721Z,21.03
2018-06-13T01:08:48.204Z,21.53
2018-06-13T01:11:16.649Z,21.77
2018-06-13T01:13:45.119Z,18.47
2018-06-13T01:16:13.669Z,18.53
2018-06-13T01:18:42.117Z,18.60
2018-06-13T01:21:10.547Z,19.23
2018-06-13T01:23:39.187Z,18.77
2018-06-13T01:26:07.621Z,18.77
2018-06-13T01:28:36.282Z,19.33
2018-06-13T01:31:04.666Z,19.23
2018-06-13T01:33:33.073Z,18.83
2018-06-13T01:36:01.553Z,19.20
2018-06-13T01:38:30.033Z,19.47
2018-06-13T01:40:58.505Z,19.33
2018-06-13T01:43:26.916Z,19.43
2018-06-13T01:45:55.274Z,18.10
2018-06-13T01:48:24.103Z,17.77
2018-06-13T01:50:56.344Z,17.53
2018-06-13T01:53:24.854Z,16.13
2018-06-13T02:02:56.114Z,17.07
2018-06-13T02:05:24.602Z,16.03
2018-06-13T02:07:53.081Z,15.90
2018-06-13T02:10:21.560Z,14.67
2018-06-13T02:12:50.045Z,15.10
2018-06-13T02:15:18.679Z,14.67
2018-06-13T02:17:47.133Z,15.37
2018-06-13T02:20:15.866Z,14.03
2018-06-13T02:22:44.253Z,13.63
2018-06-13T02:25:12.631Z,14.20
2018-06-13T02:27:41.009Z,14.50
2018-06-13T02:30:09.514Z,14.27
2018-06-13T02:32:41.223Z,14.53
2018-06-13T02:35:09.658Z,14.27
2018-06-13T02:37:38.126Z,14.20
2018-06-13T02:40:06.739Z,14.03
2018-06-13T02:42:35.190Z,14.67
2018-06-13T02:45:03.808Z,16.07
2018-06-13T02:47:32.314Z,16.13
2018-06-13T02:50:00.750Z,14.97
2018-06-13T02:52:29.226Z,15.03
2018-06-13T02:54:57.706Z,14.90
2018-06-13T02:57:26.414Z,12.07
2018-06-13T02:59:54.995Z,12.43
2018-06-13T03:02:23.437Z,14.13
2018-06-13T03:04:51.966Z,14.87
2018-06-13T03:07:20.400Z,15.50
2018-06-13T03:09:48.785Z,15.70
2018-06-13T03:12:21.481Z,15.73
2018-06-13T03:14:50.018Z,16.60
2018-06-13T03:17:18.457Z,16.43
2018-06-13T03:19:46.918Z,16.33
2018-06-13T03:22:15.401Z,16.73
2018-06-13T03:24:43.866Z,17.70
2018-06-13T03:27:12.271Z,16.70
2018-06-13T03:29:40.742Z,17.20
2018-06-13T03:32:09.224Z,18.30
2018-06-13T03:34:37.688Z,17.83
2018-06-13T03:37:06.110Z,19.47
2018-06-13T03:39:35.546Z,19.70
2018-06-13T03:42:04.200Z,19.97
2018-06-13T03:44:32.650Z,20.53
2018-06-13T03:47:01.070Z,22.20
2018-06-13T03:49:29.518Z,21.17
2018-06-13T03:51:58.014Z,20.67
2018-06-13T03:54:26.497Z,21.27
2018-06-13T03:56:55.030Z,20.47
2018-06-13T03:59:24.293Z,21.83
2018-06-13T04:01:52.767Z,22.20
2018-06-13T04:04:21.210Z,19.53
2018-06-13T04:06:49.743Z,20.17
2018-06-13T04:09:18.332Z,20.57
2018-06-13T04:11:46.784Z,20.70
2018-06-13T04:14:15.250Z,20.40
2018-06-13T04:16:46.540Z,20.70
2018-06-13T04:19:15.174Z,19.17
2018-06-13T04:21:43.581Z,19.40
2018-06-13T04:24:12.074Z,19.97
2018-06-13T04:26:40.537Z,20.13
2018-06-13T04:29:08.998Z,21.00
2018-06-13T04:31:37.421Z,21.10
2018-06-13T04:34:05.878Z,20.60
2018-06-13T04:36:34.378Z,20.93
2018-06-13T04:39:02.850Z,21.50
2018-06-13T04:41:31.325Z,21.00
2018-06-13T04:43:59.794Z,22.13
2018-06-13T04:46:28.310Z,21.83
2018-06-13T04:48:56.803Z,21.33
2018-06-13T04:51:25.275Z,20.27
2018-06-13T04:53:53.743Z,20.80
2018-06-13T04:56:22.194Z,20.90
2018-06-13T04:58:50.714Z,20.90
2018-06-13T05:01:19.158Z,19.20
2018-06-13T05:03:47.571Z,20.13
2018-06-13T05:06:16.087Z,19.80
2018-06-13T05:08:44.571Z,19.00
2018-06-13T05:11:13.022Z,19.87
2018-06-13T05:13:41.482Z,19.77
2018-06-13T05:16:09.942Z,18.47
2018-06-13T05:18:38.370Z,19.60
2018-06-13T05:21:06.806Z,19.53
2018-06-13T05:23:35.226Z,19.00
2018-06-13T05:26:03.764Z,19.97
2018-06-13T05:28:32.167Z,19.17
2018-06-13T05:31:00.802Z,18.83
2018-06-13T05:33:29.469Z,19.03
2018-06-13T05:35:58.146Z,18.60
2018-06-13T05:38:26.663Z,19.00
2018-06-13T05:40:55.137Z,18.77
2018-06-13T05:43:23.633Z,18.03
2018-06-13T05:45:52.038Z,18.03
2018-06-13T05:48:20.434Z,18.43
2018-06-13T05:50:48.913Z,18.17
2018-06-13T05:53:17.402Z,18.57
2018-06-13T05:55:45.842Z,17.23
2018-06-13T05:58:14.405Z,17.30
2018-06-13T06:00:42.825Z,17.43
2018-06-13T06:03:11.298Z,17.17
2018-06-13T06:05:39.726Z,17.10
2018-06-13T06:08:08.178Z,17.23
2018-06-13T06:10:36.604Z,17.27
2018-06-13T06:13:05.414Z,17.80
2018-06-13T06:15:35.962Z,17.10
2018-06-13T06:18:04.398Z,17.00
2018-06-13T06:20:32.837Z,17.40
2018-06-13T06:23:01.235Z,17.33
2018-06-13T06:25:29.906Z,17.03
2018-06-13T06:27:58.466Z,17.07
2018-06-13T06:30:26.870Z,16.27
2018-06-13T06:32:55.358Z,16.77
2018-06-13T06:35:23.757Z,17.53
2018-06-13T06:37:52.371Z,17.00
2018-06-13T06:40:20.794Z,16.63
2018-06-13T06:42:53.472Z,16.43
2018-06-13T06:45:22.151Z,17.17
2018-06-13T06:47:50.662Z,17.60
2018-06-13T06:50:19.155Z,15.83
2018-06-13T06:52:47.614Z,16.77
2018-06-13T06:55:16.133Z,16.20
2018-06-13T06:57:44.538Z,15.47
2018-06-13T07:00:13.107Z,15.97
2018-06-13T07:02:41.554Z,15.43
2018-06-13T07:05:10.047Z,15.43
2018-06-13T07:07:39.079Z,14.47
2018-06-13T07:10:07.506Z,14.80
2018-06-13T07:12:35.979Z,13.97
2018-06-13T07:15:04.542Z,16.03
2018-06-13T07:17:33.025Z,15.10
2018-06-13T07:20:01.530Z,14.77
2018-06-13T07:22:30.806Z,13.97
2018-06-13T07:24:59.382Z,15.37
2018-06-13T07:27:27.777Z,14.93
2018-06-13T07:29:56.252Z,14.23
2018-06-13T07:32:24.626Z,14.63
2018-06-13T07:34:53.057Z,13.73
2018-06-13T07:37:21.491Z,13.17
2018-06-13T07:39:49.916Z,14.07
2018-06-13T07:42:18.406Z,12.30
2018-06-13T07:44:46.869Z,12.57
2018-06-13T07:47:15.483Z,12.23
2018-06-13T07:49:44.149Z,11.93
2018-06-13T07:52:12.614Z,11.13
2018-06-13T07:54:41.106Z,11.60
2018-06-13T07:57:09.594Z,10.57
2018-06-13T07:59:38.034Z,9.60
2018-06-13T08:02:06.577Z,10.33
2018-06-13T08:04:35.031Z,9.47
2018-06-13T08:07:03.594Z,10.53
2018-06-13T08:09:32.057Z,10.17
2018-06-13T08:12:00.433Z,11.50
2018-06-13T08:14:28.903Z,10.20
2018-06-13T08:16:57.364Z,10.40
2018-06-13T08:19:25.793Z,10.43
2018-06-13T08:21:54.341Z,9.87
2018-06-13T08:24:22.742Z,9.20
2018-06-13T08:26:54.714Z,11.00
2018-06-13T08:29:23.542Z,10.43
2018-06-13T08:31:52.587Z,10.37
2018-06-13T08:34:21.096Z,10.23
2018-06-13T08:36:49.707Z,11.73
2018-06-13T08:39:18.170Z,9.73
2018-06-13T08:41:46.670Z,10.07
2018-06-13T08:44:15.180Z,10.33
2018-06-13T08:46:43.623Z,9.87
2018-06-13T08:49:12.078Z,10.33
2018-06-13T08:51:40.587Z,10.37
2018-06-13T08:54:09.093Z,10.13
2018-06-13T08:56:37.581Z,10.67
2018-06-13T08:59:06.097Z,12.20
2018-06-13T09:01:34.620Z,11.47
2018-06-13T09:04:03.148Z,12.37
2018-06-13T09:06:31.564Z,11.90
2018-06-13T09:09:00.128Z,11.93
2018-06-13T09:11:28.529Z,12.23
2018-06-13T09:13:57.087Z,12.83
2018-06-13T09:16:25.458Z,11.73
2018-06-13T09:18:54.118Z,12.00
2018-06-13T09:21:22.749Z,11.77
2018-06-13T09:23:51.231Z,12.60
2018-06-13T09:26:19.746Z,11.67
2018-06-13T09:28:48.317Z,11.90
2018-06-13T09:31:17.021Z,12.07
2018-06-13T09:33:45.481Z,11.20
2018-06-13T09:36:13.953Z,12.30
2018-06-13T09:38:42.443Z,11.17
2018-06-13T09:41:10.870Z,12.20
2018-06-13T09:43:39.327Z,11.80
2018-06-13T09:46:12.013Z,12.40
2018-06-13T09:48:36.455Z,12.63
2018-06-13T09:51:05.382Z,12.33
2018-06-13T09:53:33.880Z,10.80
2018-06-13T09:56:02.231Z,10.90
2018-06-13T09:58:34.841Z,11.10
2018-06-13T10:01:08.001Z,10.90
2018-06-13T10:03:36.866Z,9.73
2018-06-13T10:06:05.397Z,11.13
2018-06-13T10:08:33.960Z,10.30
2018-06-13T10:11:02.422Z,10.70
2018-06-13T10:13:30.911Z,10.38
2018-06-13T10:15:59.603Z,10.37
2018-06-13T10:18:28.098Z,9.43
2018-06-13T10:20:56.570Z,9.63
2018-06-13T10:23:25.082Z,10.60
2018-06-13T10:25:53.494Z,9.33
2018-06-13T10:28:21.927Z,9.70
2018-06-13T10:30:50.390Z,9.87
2018-06-13T10:33:18.839Z,9.25
2018-06-13T10:35:47.497Z,10.17
2018-06-13T10:38:15.914Z,9.23
2018-06-13T10:40:44.285Z,9.30
2018-06-13T10:43:12.774Z,9.53
2018-06-13T10:45:41.755Z,9.30
2018-06-13T10:48:10.427Z,9.37
2018-06-13T10:50:38.902Z,9.60
2018-06-13T10:53:07.314Z,8.83
2018-06-13T10:55:35.821Z,9.07
2018-06-13T10:58:04.322Z,10.17
2018-06-13T11:00:32.868Z,9.43
2018-06-13T11:03:01.322Z,9.03
2018-06-13T11:05:29.745Z,11.37
2018-06-13T11:07:58.587Z,10.53
2018-06-13T11:10:27.133Z,11.10
2018-06-13T11:12:55.558Z,11.60
2018-06-13T11:15:24.183Z,11.23
2018-06-13T11:17:52.655Z,11.37
2018-06-13T11:20:21.240Z,12.10
2018-06-13T11:22:49.723Z,13.10
2018-06-13T11:25:18.253Z,12.10
2018-06-13T11:27:46.743Z,12.23
2018-06-13T11:30:15.398Z,11.90
2018-06-13T11:32:44.025Z,12.27
2018-06-13T11:35:12.463Z,11.60
2018-06-13T11:37:40.890Z,12.27
2018-06-13T11:40:09.394Z,13.07
2018-06-13T11:42:37.848Z,11.87
2018-06-13T11:45:06.434Z,12.50
2018-06-13T11:47:34.927Z,12.10
2018-06-13T11:50:03.583Z,11.80
2018-06-13T11:52:32.219Z,11.37
2018-06-13T11:55:00.621Z,10.77
2018-06-13T11:57:29.050Z,10.90
2018-06-13T11:59:57.494Z,11.77
2018-06-13T12:02:25.985Z,10.07
2018-06-13T12:04:54.446Z,11.40
2018-06-13T12:07:22.926Z,11.97
2018-06-13T12:09:51.402Z,10.80
2018-06-13T12:12:19.822Z,10.37
2018-06-13T12:14:48.314Z,10.67
2018-06-13T12:17:16.759Z,10.83
2018-06-13T12:19:45.242Z,10.07
2018-06-13T12:22:13.785Z,10.00
2018-06-13T12:24:42.183Z,10.10
2018-06-13T12:27:10.822Z,10.70
2018-06-13T12:29:39.408Z,10.17
2018-06-13T12:32:07.903Z,9.87
2018-06-13T12:34:36.374Z,10.60
2018-06-13T12:37:04.901Z,10.23
2018-06-13T12:39:33.281Z,10.53
2018-06-13T12:42:01.857Z,10.27
2018-06-13T12:44:30.628Z,10.47
2018-06-13T12:46:59.229Z,10.00
2018-06-13T12:49:27.762Z,10.47
2018-06-13T12:51:56.286Z,10.20
2018-06-13T12:54:24.698Z,10.03
2018-06-13T12:56:53.147Z,10.07
2018-06-13T12:59:21.610Z,9.73
2018-06-13T13:01:50.174Z,9.17
2018-06-13T13:04:18.650Z,8.77
2018-06-13T13:06:47.103Z,9.23
2018-06-13T13:09:15.624Z,8.90
2018-06-13T13:11:44.455Z,8.83
2018-06-13T13:14:13.018Z,9.43
2018-06-13T13:16:41.450Z,7.67
2018-06-13T13:19:09.957Z,8.30
2018-06-13T13:21:38.494Z,7.67
2018-06-13T13:24:07.162Z,8.15
2018-06-13T13:26:35.551Z,8.58
2018-06-13T13:29:04.335Z,8.25
2018-06-13T13:31:33.431Z,8.43
2018-06-13T13:34:01.983Z,8.43
2018-06-13T13:36:30.600Z,7.70
2018-06-13T13:38:59.030Z,7.95
2018-06-13T13:41:27.614Z,8.65
2018-06-13T13:43:56.088Z,8.03
2018-06-13T13:46:24.566Z,6.67
2018-06-13T13:48:53.210Z,7.72
2018-06-13T13:51:21.715Z,7.17
2018-06-13T13:53:50.246Z,7.67
2018-06-13T13:56:18.686Z,7.47
2018-06-13T13:58:47.231Z,6.83
2018-06-13T14:01:15.623Z,6.78
2018-06-13T14:03:44.010Z,7.50
2018-06-13T14:06:12.377Z,7.33
2018-06-13T14:08:40.869Z,7.42
2018-06-13T14:11:09.246Z,6.87
2018-06-13T14:13:38.253Z,6.03
2018-06-13T14:16:06.737Z,6.43
2018-06-13T14:18:35.198Z,4.87
2018-06-13T14:21:04.669Z,4.80
2018-06-13T14:23:33.078Z,5.00
2018-06-13T14:26:01.503Z,5.75
2018-06-13T14:28:29.941Z,5.83
2018-06-13T14:30:58.638Z,5.07
2018-06-13T14:33:27.141Z,5.00
2018-06-13T14:35:55.680Z,4.93
2018-06-13T14:38:24.066Z,5.10
2018-06-13T14:40:52.629Z,5.27
2018-06-13T14:43:21.047Z,4.87
2018-06-13T14:45:49.474Z,4.95
2018-06-13T14:48:17.877Z,4.87
2018-06-13T14:50:46.318Z,4.45
2018-06-13T14:53:14.971Z,3.40
2018-06-13T14:55:52.674Z,4.15
2018-06-13T14:58:21.239Z,4.90
2018-06-13T15:00:49.718Z,4.37
2018-06-13T15:03:18.109Z,3.98
2018-06-13T15:05:46.493Z,3.67
2018-06-13T15:08:18.685Z,4.80
2018-06-13T15:10:47.275Z,3.98
2018-06-13T15:13:16.259Z,5.42
2018-06-13T15:15:45.203Z,3.90
2018-06-13T15:18:13.792Z,4.37
2018-06-13T15:20:42.392Z,3.90
2018-06-13T15:23:10.818Z,4.70
2018-06-13T15:25:39.307Z,4.97
2018-06-13T15:28:07.854Z,5.08
2018-06-13T15:30:36.362Z,4.78
2018-06-13T15:33:05.151Z,5.25
2018-06-13T15:35:33.696Z,4.60
2018-06-13T15:38:02.471Z,5.15
2018-06-13T15:40:30.938Z,4.77
2018-06-13T15:42:59.365Z,4.28
2018-06-13T15:45:27.900Z,4.20
2018-06-13T15:47:56.351Z,4.67
2018-06-13T15:50:24.916Z,4.33
2018-06-13T15:52:53.458Z,4.30
2018-06-13T15:55:21.898Z,4.45
2018-06-13T15:57:50.357Z,3.83
2018-06-13T16:00:18.911Z,3.95
2018-06-13T16:02:47.355Z,3.40
2018-06-13T16:05:15.914Z,4.05
2018-06-13T16:07:44.731Z,3.65
2018-06-13T16:10:13.350Z,3.92
2018-06-13T16:12:42.037Z,3.85
2018-06-13T16:15:10.592Z,3.72
2018-06-13T16:17:39.044Z,3.50
2018-06-13T16:20:07.561Z,4.15
2018-06-13T16:22:36.346Z,3.75
2018-06-13T16:25:05.061Z,4.10
2018-06-13T16:27:33.466Z,3.92
2018-06-13T16:30:02.165Z,3.98
2018-06-13T16:32:30.696Z,4.40
2018-06-13T16:34:59.111Z,4.20
2018-06-13T16:37:27.877Z,4.65
2018-06-13T16:39:56.291Z,4.17
2018-06-13T16:42:25.174Z,3.98
2018-06-13T16:44:53.710Z,4.10
2018-06-13T16:47:22.137Z,4.00
2018-06-13T16:49:51.115Z,4.10
2018-06-13T16:52:30.794Z,4.17
2018-06-13T16:55:20.111Z,3.90
2018-06-13T16:57:49.316Z,3.90
2018-06-13T17:00:18.757Z,4.12
2018-06-13T17:02:47.519Z,3.80
2018-06-13T17:05:16.078Z,3.90
2018-06-13T17:07:49.262Z,3.60
2018-06-13T17:10:17.764Z,4.10
2018-06-13T17:12:46.174Z,3.80
2018-06-13T17:15:14.642Z,4.42
2018-06-13T17:17:43.130Z,3.83
2018-06-13T17:20:11.611Z,4.40
2018-06-13T17:22:40.197Z,3.62
2018-06-13T17:25:08.679Z,4.10
2018-06-13T17:27:37.221Z,4.10
2018-06-13T17:30:05.809Z,3.80
2018-06-13T17:32:34.279Z,3.43
2018-06-13T17:35:02.737Z,3.83
2018-06-13T17:37:31.173Z,3.60
2018-06-13T17:39:59.607Z,4.28
2018-06-13T17:42:28.055Z,4.30
2018-06-13T17:44:56.650Z,3.50
2018-06-13T17:47:25.375Z,4.20
2018-06-13T17:49:53.792Z,3.60
2018-06-13T17:52:22.250Z,3.93
2018-06-13T17:54:51.065Z,3.90
2018-06-13T17:57:19.794Z,3.75
2018-06-13T17:59:48.383Z,3.77
2018-06-13T18:02:17.278Z,4.17
2018-06-13T18:04:46.052Z,4.30
2018-06-13T18:07:14.579Z,4.08
2018-06-13T18:09:43.296Z,4.08
2018-06-13T18:12:16.255Z,4.30
2018-06-13T18:14:45.039Z,4.00
2018-06-13T18:17:13.488Z,4.00
2018-06-13T18:19:42.350Z,4.72
2018-06-13T18:22:10.994Z,4.10
2018-06-13T18:24:39.644Z,3.97
2018-06-13T18:27:08.165Z,4.30
2018-06-13T18:29:36.752Z,4.53
2018-06-13T18:32:05.183Z,4.70
2018-06-13T18:34:33.625Z,4.67
2018-06-13T18:37:02.068Z,4.20
2018-06-13T18:39:30.830Z,4.30
2018-06-13T18:41:59.388Z,4.90
2018-06-13T18:44:28.009Z,4.60
2018-06-13T18:46:56.477Z,4.57
2018-06-13T18:49:25.313Z,4.70
2018-06-13T18:51:53.873Z,4.70
2018-06-13T18:54:22.468Z,5.00
2018-06-13T18:56:51.091Z,5.13
2018-06-13T18:59:19.602Z,4.80
2018-06-13T19:01:48.062Z,4.73
2018-06-13T19:04:16.719Z,5.33
2018-06-13T19:06:45.147Z,5.10
2018-06-13T19:09:13.695Z,4.93
2018-06-13T19:11:42.451Z,4.90
2018-06-13T19:14:11.528Z,5.57
2018-06-13T19:16:41.198Z,4.70
2018-06-13T19:19:09.755Z,4.93
2018-06-13T19:21:38.199Z,5.20
2018-06-13T19:24:06.931Z,5.33
2018-06-13T19:26:35.509Z,4.73
2018-06-13T19:29:04.195Z,5.13
2018-06-13T19:31:32.774Z,4.93
2018-06-13T19:34:01.446Z,5.07
2018-06-13T19:36:29.993Z,5.73
2018-06-13T19:38:58.814Z,5.70
2018-06-13T19:41:27.382Z,5.57
2018-06-13T19:43:57.066Z,6.07
2018-06-13T19:46:25.654Z,5.47
2018-06-13T19:48:55.167Z,5.83
2018-06-13T19:51:23.722Z,5.93
2018-06-13T19:53:57.514Z,5.90
2018-06-13T19:56:30.188Z,5.73
2018-06-13T19:58:58.584Z,5.77
2018-06-13T20:01:31.542Z,5.80
2018-06-13T20:04:05.454Z,6.00
2018-06-13T20:06:37.553Z,6.67
2018-06-13T20:09:08.090Z,8.50
2018-06-13T20:11:36.619Z,8.50
2018-06-13T20:14:10.407Z,8.00
2018-06-13T20:16:53.899Z,7.57
2018-06-13T20:19:27.998Z,7.37
2018-06-13T20:21:57.706Z,6.97
2018-06-13T20:24:26.350Z,6.70
2018-06-13T20:27:00.150Z,7.33
2018-06-13T20:29:34.047Z,7.10
2018-06-13T20:32:02.722Z,8.07
2018-06-13T20:34:31.158Z,8.37
2018-06-13T20:36:59.584Z,9.60
2018-06-13T20:39:30.537Z,9.87
2018-06-13T20:41:59.217Z,10.33
2018-06-13T20:44:27.708Z,10.53
2018-06-13T20:46:56.250Z,10.73
2018-06-13T20:49:24.675Z,10.33
2018-06-13T20:51:53.186Z,9.60
2018-06-13T20:54:21.802Z,10.50
2018-06-13T20:56:50.266Z,9.73
2018-06-13T20:59:18.758Z,9.87
2018-06-13T21:01:47.229Z,9.53
2018-06-13T21:04:15.733Z,9.47
2018-06-13T21:06:44.222Z,9.57
2018-06-13T21:09:12.812Z,8.83
2018-06-13T21:11:41.347Z,8.60
2018-06-13T21:14:09.982Z,8.23
2018-06-13T21:16:38.503Z,8.40
2018-06-13T21:19:07.123Z,7.87
2018-06-13T21:21:35.533Z,8.40
2018-06-13T21:24:04.119Z,8.00
2018-06-13T21:26:32.686Z,8.00
2018-06-13T21:29:01.288Z,8.10
2018-06-13T21:31:30.294Z,7.50
2018-06-13T21:33:58.959Z,7.67
2018-06-13T21:36:28.319Z,7.90
2018-06-13T21:38:56.792Z,7.67
2018-06-13T21:41:25.275Z,7.57
2018-06-13T21:43:58.131Z,7.37
2018-06-13T21:46:26.817Z,7.57
2018-06-13T21:48:55.672Z,6.97
2018-06-13T21:51:24.093Z,7.87
2018-06-13T21:53:52.615Z,7.77
2018-06-13T21:56:21.175Z,7.50
2018-06-13T21:58:49.662Z,7.73
2018-06-13T22:01:18.117Z,7.73
2018-06-13T22:03:46.543Z,7.00
2018-06-13T22:06:15.014Z,7.20
2018-06-13T22:08:43.479Z,6.47
2018-06-13T22:11:12.214Z,7.30
2018-06-13T22:13:41.705Z,6.97
2018-06-13T22:16:10.173Z,7.80
2018-06-13T22:18:38.682Z,6.70
2018-06-13T22:21:07.736Z,6.57
2018-06-13T22:23:36.330Z,6.93
2018-06-13T22:26:04.841Z,7.70
2018-06-13T22:28:33.297Z,7.03
2018-06-13T22:31:02.042Z,7.90
2018-06-13T22:33:30.482Z,7.53
2018-06-13T22:35:59.108Z,7.40
2018-06-13T22:38:27.923Z,7.73
2018-06-13T22:40:56.313Z,7.10
2018-06-13T22:43:25.731Z,7.37
2018-06-13T22:45:54.162Z,6.97
2018-06-13T22:48:26.520Z,8.10
2018-06-13T22:50:54.897Z,6.93
2018-06-13T22:53:23.343Z,7.50
2018-06-13T22:55:51.813Z,7.33
2018-06-13T22:58:20.258Z,8.00
2018-06-13T23:01:05.071Z,6.77
2018-06-13T23:03:33.800Z,6.60
2018-06-13T23:06:04.389Z,6.60
2018-06-13T23:08:34.042Z,6.97
2018-06-13T23:11:02.554Z,6.30
2018-06-13T23:13:31.436Z,7.00
2018-06-13T23:16:03.856Z,6.63
2018-06-13T23:18:32.447Z,6.60
2018-06-13T23:21:01.201Z,7.13
2018-06-13T23:23:29.809Z,5.90
2018-06-13T23:25:58.818Z,6.80
2018-06-13T23:28:27.571Z,6.63
2018-06-13T23:30:57.447Z,6.70
2018-06-13T23:33:25.822Z,7.10
2018-06-13T23:35:54.364Z,6.60
2018-06-13T23:38:23.013Z,6.00
2018-06-13T23:40:51.428Z,6.10
2018-06-13T23:43:20.140Z,6.13
2018-06-13T23:45:48.595Z,6.40
2018-06-13T23:48:17.020Z,6.80
2018-06-13T23:50:46.510Z,6.73
2018-06-13T23:53:15.074Z,6.80
2018-06-13T23:55:43.529Z,6.00
2018-06-13T23:58:12.402Z,6.57
